sensor_id;sensor_type;location;lat;lon;timestamp;P1;durP1;ratioP1;P2;durP2;ratioP2
13807;SDS011;40769;51.512;5.494;2022-08-18T00:00:53;18.25;;;16.65;;
13807;SDS011;40769;51.512;5.494;2022-08-18T00:03:18;20.38;;;18.98;;
13807;SDS011;40769;51.512;5.494;2022-08-18T00:05:44;22.40;;;20.70;;
13807;SDS011;40769;51.512;5.494;2022-08-18T00:08:10;18.05;;;16.70;;
13807;SDS011;40769;51.512;5.494;2022-08-18T00:10:35;20.75;;;19.20;;
13807;SDS011;40769;51.512;5.494;2022-08-18T00:13:05;18.10;;;16.58;;
13807;SDS011;40769;51.512;5.494;2022-08-18T00:15:31;17.42;;;16.15;;
13807;SDS011;40769;51.512;5.494;2022-08-18T00:17:57;21.73;;;20.13;;
13807;SDS011;40769;51.512;5.494;2022-08-18T00:20:23;23.45;;;21.73;;
13807;SDS011;40769;51.512;5.494;2022-08-18T00:22:49;21.48;;;19.88;;
13807;SDS011;40769;51.512;5.494;2022-08-18T00:25:16;21.83;;;20.17;;
13807;SDS011;40769;51.512;5.494;2022-08-18T00:27:43;24.52;;;22.65;;
13807;SDS011;40769;51.512;5.494;2022-08-18T00:30:16;31.70;;;29.25;;
13807;SDS011;40769;51.512;5.494;2022-08-18T00:32:46;28.50;;;26.30;;
13807;SDS011;40769;51.512;5.494;2022-08-18T00:35:18;25.65;;;23.75;;
13807;SDS011;40769;51.512;5.494;2022-08-18T00:37:46;31.23;;;28.73;;
13807;SDS011;40769;51.512;5.494;2022-08-18T00:40:17;22.67;;;20.98;;
13807;SDS011;40769;51.512;5.494;2022-08-18T00:42:49;25.48;;;23.48;;
13807;SDS011;40769;51.512;5.494;2022-08-18T00:45:18;23.33;;;21.52;;
13807;SDS011;40769;51.512;5.494;2022-08-18T00:47:47;19.38;;;17.98;;
13807;SDS011;40769;51.512;5.494;2022-08-18T00:50:17;27.77;;;25.70;;
13807;SDS011;40769;51.512;5.494;2022-08-18T00:53:07;28.95;;;26.75;;
13807;SDS011;40769;51.512;5.494;2022-08-18T00:55:40;19.95;;;18.40;;
13807;SDS011;40769;51.512;5.494;2022-08-18T00:58:10;22.58;;;20.95;;
13807;SDS011;40769;51.512;5.494;2022-08-18T01:00:43;24.90;;;23.00;;
13807;SDS011;40769;51.512;5.494;2022-08-18T01:03:11;18.27;;;16.88;;
13807;SDS011;40769;51.512;5.494;2022-08-18T01:05:51;21.35;;;19.77;;
13807;SDS011;40769;51.512;5.494;2022-08-18T01:08:24;23.48;;;21.60;;
13807;SDS011;40769;51.512;5.494;2022-08-18T01:10:50;24.85;;;22.85;;
13807;SDS011;40769;51.512;5.494;2022-08-18T01:13:16;23.63;;;21.85;;
13807;SDS011;40769;51.512;5.494;2022-08-18T01:15:42;26.50;;;24.42;;
13807;SDS011;40769;51.512;5.494;2022-08-18T01:18:09;20.58;;;19.08;;
13807;SDS011;40769;51.512;5.494;2022-08-18T01:24:03;30.40;;;28.13;;
13807;SDS011;40769;51.512;5.494;2022-08-18T01:26:33;21.88;;;20.23;;
13807;SDS011;40769;51.512;5.494;2022-08-18T01:29:04;27.83;;;25.63;;
13807;SDS011;40769;51.512;5.494;2022-08-18T01:31:37;30.90;;;28.60;;
13807;SDS011;40769;51.512;5.494;2022-08-18T01:34:05;19.55;;;18.15;;
13807;SDS011;40769;51.512;5.494;2022-08-18T01:36:33;18.15;;;16.65;;
13807;SDS011;40769;51.512;5.494;2022-08-18T01:39:02;20.08;;;18.60;;
13807;SDS011;40769;51.512;5.494;2022-08-18T01:41:29;19.15;;;17.75;;
13807;SDS011;40769;51.512;5.494;2022-08-18T01:43:55;18.27;;;16.90;;
13807;SDS011;40769;51.512;5.494;2022-08-18T01:46:22;18.95;;;17.52;;
13807;SDS011;40769;51.512;5.494;2022-08-18T01:48:49;22.80;;;21.15;;
13807;SDS011;40769;51.512;5.494;2022-08-18T01:51:15;21.05;;;19.45;;
13807;SDS011;40769;51.512;5.494;2022-08-18T01:53:43;22.08;;;20.38;;
13807;SDS011;40769;51.512;5.494;2022-08-18T01:56:09;19.38;;;17.90;;
13807;SDS011;40769;51.512;5.494;2022-08-18T01:58:35;23.25;;;21.45;;
13807;SDS011;40769;51.512;5.494;2022-08-18T02:01:00;25.40;;;23.48;;
13807;SDS011;40769;51.512;5.494;2022-08-18T02:03:28;21.92;;;20.33;;
13807;SDS011;40769;51.512;5.494;2022-08-18T02:05:59;25.15;;;23.15;;
13807;SDS011;40769;51.512;5.494;2022-08-18T02:08:27;29.90;;;27.60;;
13807;SDS011;40769;51.512;5.494;2022-08-18T02:10:53;26.60;;;24.55;;
13807;SDS011;40769;51.512;5.494;2022-08-18T02:13:19;22.92;;;21.08;;
13807;SDS011;40769;51.512;5.494;2022-08-18T02:15:44;21.50;;;19.92;;
13807;SDS011;40769;51.512;5.494;2022-08-18T02:18:17;26.75;;;24.75;;
13807;SDS011;40769;51.512;5.494;2022-08-18T02:20:48;22.50;;;20.80;;
13807;SDS011;40769;51.512;5.494;2022-08-18T02:23:14;21.40;;;19.70;;
13807;SDS011;40769;51.512;5.494;2022-08-18T02:25:40;20.27;;;18.77;;
13807;SDS011;40769;51.512;5.494;2022-08-18T02:28:07;17.75;;;16.45;;
13807;SDS011;40769;51.512;5.494;2022-08-18T02:30:33;16.00;;;14.75;;
13807;SDS011;40769;51.512;5.494;2022-08-18T02:33:01;19.27;;;17.77;;
13807;SDS011;40769;51.512;5.494;2022-08-18T02:35:31;19.33;;;17.85;;
13807;SDS011;40769;51.512;5.494;2022-08-18T02:37:58;17.15;;;15.82;;
13807;SDS011;40769;51.512;5.494;2022-08-18T02:40:24;19.08;;;17.70;;
13807;SDS011;40769;51.512;5.494;2022-08-18T02:42:50;17.95;;;16.60;;
13807;SDS011;40769;51.512;5.494;2022-08-18T02:45:16;23.42;;;21.55;;
13807;SDS011;40769;51.512;5.494;2022-08-18T02:47:43;17.42;;;16.08;;
13807;SDS011;40769;51.512;5.494;2022-08-18T02:50:10;19.40;;;17.95;;
13807;SDS011;40769;51.512;5.494;2022-08-18T02:52:36;16.40;;;15.10;;
13807;SDS011;40769;51.512;5.494;2022-08-18T02:55:02;15.02;;;13.93;;
13807;SDS011;40769;51.512;5.494;2022-08-18T02:57:30;15.35;;;14.15;;
13807;SDS011;40769;51.512;5.494;2022-08-18T02:59:55;14.82;;;13.73;;
13807;SDS011;40769;51.512;5.494;2022-08-18T03:02:21;15.10;;;13.98;;
13807;SDS011;40769;51.512;5.494;2022-08-18T03:04:47;14.38;;;13.27;;
13807;SDS011;40769;51.512;5.494;2022-08-18T03:07:18;14.45;;;13.35;;
13807;SDS011;40769;51.512;5.494;2022-08-18T03:09:43;14.63;;;13.52;;
13807;SDS011;40769;51.512;5.494;2022-08-18T03:12:09;14.32;;;13.23;;
13807;SDS011;40769;51.512;5.494;2022-08-18T03:14:35;14.32;;;13.32;;
13807;SDS011;40769;51.512;5.494;2022-08-18T03:17:04;15.38;;;14.27;;
13807;SDS011;40769;51.512;5.494;2022-08-18T03:19:32;15.13;;;14.02;;
13807;SDS011;40769;51.512;5.494;2022-08-18T03:21:58;13.52;;;12.52;;
13807;SDS011;40769;51.512;5.494;2022-08-18T03:24:25;14.15;;;13.15;;
13807;SDS011;40769;51.512;5.494;2022-08-18T03:26:52;13.05;;;12.15;;
13807;SDS011;40769;51.512;5.494;2022-08-18T03:29:21;15.52;;;14.35;;
13807;SDS011;40769;51.512;5.494;2022-08-18T03:31:49;16.15;;;15.00;;
13807;SDS011;40769;51.512;5.494;2022-08-18T03:34:16;17.08;;;15.77;;
13807;SDS011;40769;51.512;5.494;2022-08-18T03:36:43;16.63;;;15.43;;
13807;SDS011;40769;51.512;5.494;2022-08-18T03:39:10;19.25;;;17.80;;
13807;SDS011;40769;51.512;5.494;2022-08-18T03:41:38;21.75;;;20.08;;
13807;SDS011;40769;51.512;5.494;2022-08-18T03:44:07;20.90;;;19.40;;
13807;SDS011;40769;51.512;5.494;2022-08-18T03:46:38;17.70;;;16.40;;
13807;SDS011;40769;51.512;5.494;2022-08-18T03:49:05;20.33;;;18.83;;
13807;SDS011;40769;51.512;5.494;2022-08-18T03:51:31;17.73;;;16.25;;
13807;SDS011;40769;51.512;5.494;2022-08-18T03:53:58;17.85;;;16.55;;
13807;SDS011;40769;51.512;5.494;2022-08-18T03:56:35;18.77;;;17.35;;
13807;SDS011;40769;51.512;5.494;2022-08-18T03:59:10;18.55;;;17.15;;
13807;SDS011;40769;51.512;5.494;2022-08-18T04:01:39;20.33;;;18.73;;
13807;SDS011;40769;51.512;5.494;2022-08-18T04:04:07;21.55;;;19.88;;
13807;SDS011;40769;51.512;5.494;2022-08-18T04:06:36;18.92;;;17.50;;
13807;SDS011;40769;51.512;5.494;2022-08-18T04:09:06;22.10;;;20.40;;
13807;SDS011;40769;51.512;5.494;2022-08-18T04:11:35;17.75;;;16.38;;
13807;SDS011;40769;51.512;5.494;2022-08-18T04:14:16;23.98;;;22.08;;
13807;SDS011;40769;51.512;5.494;2022-08-18T04:16:44;25.27;;;23.27;;
13807;SDS011;40769;51.512;5.494;2022-08-18T04:19:10;23.35;;;21.42;;
13807;SDS011;40769;51.512;5.494;2022-08-18T04:21:38;20.38;;;18.88;;
13807;SDS011;40769;51.512;5.494;2022-08-18T04:24:06;21.05;;;19.45;;
13807;SDS011;40769;51.512;5.494;2022-08-18T04:26:37;26.02;;;24.02;;
13807;SDS011;40769;51.512;5.494;2022-08-18T04:29:19;20.13;;;18.60;;
13807;SDS011;40769;51.512;5.494;2022-08-18T04:31:45;22.65;;;20.95;;
13807;SDS011;40769;51.512;5.494;2022-08-18T04:34:12;21.35;;;19.75;;
13807;SDS011;40769;51.512;5.494;2022-08-18T04:36:39;20.63;;;19.05;;
13807;SDS011;40769;51.512;5.494;2022-08-18T04:39:06;17.55;;;16.27;;
13807;SDS011;40769;51.512;5.494;2022-08-18T04:41:34;25.58;;;23.50;;
13807;SDS011;40769;51.512;5.494;2022-08-18T04:44:02;24.10;;;22.30;;
13807;SDS011;40769;51.512;5.494;2022-08-18T04:46:34;27.60;;;25.40;;
13807;SDS011;40769;51.512;5.494;2022-08-18T04:49:05;31.45;;;28.83;;
13807;SDS011;40769;51.512;5.494;2022-08-18T04:51:31;22.70;;;20.90;;
13807;SDS011;40769;51.512;5.494;2022-08-18T04:53:58;23.17;;;21.42;;
13807;SDS011;40769;51.512;5.494;2022-08-18T04:56:32;26.27;;;24.10;;
13807;SDS011;40769;51.512;5.494;2022-08-18T04:59:02;25.98;;;23.80;;
13807;SDS011;40769;51.512;5.494;2022-08-18T05:01:32;24.77;;;22.80;;
13807;SDS011;40769;51.512;5.494;2022-08-18T05:04:00;20.63;;;19.02;;
13807;SDS011;40769;51.512;5.494;2022-08-18T05:06:27;20.38;;;18.77;;
13807;SDS011;40769;51.512;5.494;2022-08-18T05:08:57;19.00;;;17.50;;
13807;SDS011;40769;51.512;5.494;2022-08-18T05:11:26;24.70;;;22.70;;
13807;SDS011;40769;51.512;5.494;2022-08-18T05:13:56;25.13;;;23.05;;
13807;SDS011;40769;51.512;5.494;2022-08-18T05:16:22;25.45;;;23.40;;
13807;SDS011;40769;51.512;5.494;2022-08-18T05:18:49;33.13;;;29.85;;
13807;SDS011;40769;51.512;5.494;2022-08-18T05:21:15;26.63;;;24.42;;
13807;SDS011;40769;51.512;5.494;2022-08-18T05:23:42;22.90;;;21.05;;
13807;SDS011;40769;51.512;5.494;2022-08-18T05:26:08;27.90;;;25.30;;
13807;SDS011;40769;51.512;5.494;2022-08-18T05:28:36;27.58;;;25.17;;
13807;SDS011;40769;51.512;5.494;2022-08-18T05:31:09;28.08;;;25.73;;
13807;SDS011;40769;51.512;5.494;2022-08-18T05:33:37;23.20;;;21.20;;
13807;SDS011;40769;51.512;5.494;2022-08-18T05:36:04;24.30;;;22.33;;
13807;SDS011;40769;51.512;5.494;2022-08-18T05:41:29;19.67;;;17.98;;
13807;SDS011;40769;51.512;5.494;2022-08-18T05:44:02;21.77;;;19.98;;
13807;SDS011;40769;51.512;5.494;2022-08-18T05:46:37;31.35;;;28.73;;
13807;SDS011;40769;51.512;5.494;2022-08-18T05:49:09;21.67;;;19.88;;
13807;SDS011;40769;51.512;5.494;2022-08-18T05:51:43;25.13;;;23.10;;
13807;SDS011;40769;51.512;5.494;2022-08-18T05:54:11;21.30;;;19.55;;
13807;SDS011;40769;51.512;5.494;2022-08-18T05:57:00;18.52;;;17.10;;
13807;SDS011;40769;51.512;5.494;2022-08-18T05:59:33;16.23;;;14.93;;
13807;SDS011;40769;51.512;5.494;2022-08-18T06:04:52;24.25;;;22.35;;
13807;SDS011;40769;51.512;5.494;2022-08-18T06:07:37;27.52;;;25.27;;
13807;SDS011;40769;51.512;5.494;2022-08-18T06:10:09;27.65;;;25.35;;
13807;SDS011;40769;51.512;5.494;2022-08-18T06:12:39;20.88;;;19.17;;
13807;SDS011;40769;51.512;5.494;2022-08-18T06:21:00;16.88;;;15.48;;
13807;SDS011;40769;51.512;5.494;2022-08-18T06:29:20;16.73;;;15.43;;
13807;SDS011;40769;51.512;5.494;2022-08-18T06:34:59;15.23;;;14.13;;
13807;SDS011;40769;51.512;5.494;2022-08-18T06:37:41;17.38;;;15.98;;
13807;SDS011;40769;51.512;5.494;2022-08-18T06:40:59;20.67;;;18.98;;
13807;SDS011;40769;51.512;5.494;2022-08-18T06:43:42;18.42;;;17.02;;
13807;SDS011;40769;51.512;5.494;2022-08-18T06:46:41;22.15;;;20.40;;
13807;SDS011;40769;51.512;5.494;2022-08-18T06:49:37;19.35;;;17.75;;
13807;SDS011;40769;51.512;5.494;2022-08-18T06:52:18;18.15;;;16.73;;
13807;SDS011;40769;51.512;5.494;2022-08-18T06:55:06;19.10;;;17.60;;
13807;SDS011;40769;51.512;5.494;2022-08-18T06:57:38;17.13;;;15.82;;
13807;SDS011;40769;51.512;5.494;2022-08-18T07:00:20;14.15;;;13.07;;
13807;SDS011;40769;51.512;5.494;2022-08-18T07:02:51;16.05;;;14.75;;
13807;SDS011;40769;51.512;5.494;2022-08-18T07:10:30;18.38;;;16.98;;
13807;SDS011;40769;51.512;5.494;2022-08-18T07:13:14;12.75;;;11.80;;
13807;SDS011;40769;51.512;5.494;2022-08-18T07:15:41;13.38;;;12.40;;
13807;SDS011;40769;51.512;5.494;2022-08-18T07:18:12;14.40;;;13.30;;
13807;SDS011;40769;51.512;5.494;2022-08-18T07:20:45;14.70;;;13.50;;
13807;SDS011;40769;51.512;5.494;2022-08-18T07:23:24;12.88;;;11.88;;
13807;SDS011;40769;51.512;5.494;2022-08-18T07:26:15;14.63;;;13.57;;
13807;SDS011;40769;51.512;5.494;2022-08-18T07:33:59;16.42;;;15.23;;
13807;SDS011;40769;51.512;5.494;2022-08-18T07:36:49;13.77;;;12.77;;
13807;SDS011;40769;51.512;5.494;2022-08-18T07:39:25;13.90;;;12.77;;
13807;SDS011;40769;51.512;5.494;2022-08-18T07:42:12;12.25;;;11.35;;
13807;SDS011;40769;51.512;5.494;2022-08-18T07:44:51;13.60;;;12.60;;
13807;SDS011;40769;51.512;5.494;2022-08-18T07:47:31;11.27;;;10.45;;
13807;SDS011;40769;51.512;5.494;2022-08-18T07:50:05;9.30;;;8.60;;
13807;SDS011;40769;51.512;5.494;2022-08-18T07:52:36;8.82;;;8.23;;
13807;SDS011;40769;51.512;5.494;2022-08-18T08:02:59;8.18;;;7.57;;
13807;SDS011;40769;51.512;5.494;2022-08-18T08:05:53;8.05;;;7.53;;
13807;SDS011;40769;51.512;5.494;2022-08-18T08:15:13;7.97;;;7.43;;
13807;SDS011;40769;51.512;5.494;2022-08-18T08:20:39;10.27;;;9.48;;
13807;SDS011;40769;51.512;5.494;2022-08-18T08:23:13;10.73;;;9.90;;
13807;SDS011;40769;51.512;5.494;2022-08-18T08:33:50;6.85;;;6.43;;
13807;SDS011;40769;51.512;5.494;2022-08-18T08:36:36;8.88;;;8.25;;
13807;SDS011;40769;51.512;5.494;2022-08-18T08:39:48;6.57;;;6.15;;
13807;SDS011;40769;51.512;5.494;2022-08-18T08:42:05;6.65;;;6.15;;
13807;SDS011;40769;51.512;5.494;2022-08-18T08:47:18;8.80;;;8.18;;
13807;SDS011;40769;51.512;5.494;2022-08-18T08:49:56;6.95;;;6.45;;
13807;SDS011;40769;51.512;5.494;2022-08-18T08:52:41;6.72;;;6.28;;
13807;SDS011;40769;51.512;5.494;2022-08-18T08:58:10;7.85;;;7.25;;
13807;SDS011;40769;51.512;5.494;2022-08-18T09:00:36;11.07;;;10.27;;
13807;SDS011;40769;51.512;5.494;2022-08-18T09:03:42;9.52;;;8.82;;
13807;SDS011;40769;51.512;5.494;2022-08-18T09:17:37;5.55;;;5.20;;
13807;SDS011;40769;51.512;5.494;2022-08-18T09:23:29;6.03;;;5.65;;
13807;SDS011;40769;51.512;5.494;2022-08-18T09:29:12;4.57;;;4.28;;
13807;SDS011;40769;51.512;5.494;2022-08-18T09:31:40;4.68;;;4.38;;
13807;SDS011;40769;51.512;5.494;2022-08-18T09:34:30;4.20;;;3.90;;
13807;SDS011;40769;51.512;5.494;2022-08-18T09:37:10;6.68;;;6.28;;
13807;SDS011;40769;51.512;5.494;2022-08-18T09:39:48;6.82;;;6.43;;
13807;SDS011;40769;51.512;5.494;2022-08-18T09:42:50;5.55;;;5.15;;
13807;SDS011;40769;51.512;5.494;2022-08-18T09:48:21;5.43;;;5.13;;
13807;SDS011;40769;51.512;5.494;2022-08-18T09:59:49;4.97;;;4.68;;
13807;SDS011;40769;51.512;5.494;2022-08-18T10:04:36;5.65;;;5.25;;
13807;SDS011;40769;51.512;5.494;2022-08-18T10:15:34;4.95;;;4.60;;
13807;SDS011;40769;51.512;5.494;2022-08-18T10:28:59;3.67;;;3.47;;
13807;SDS011;40769;51.512;5.494;2022-08-18T10:31:30;4.03;;;3.78;;
13807;SDS011;40769;51.512;5.494;2022-08-18T10:37:15;4.28;;;4.03;;
13807;SDS011;40769;51.512;5.494;2022-08-18T10:39:46;3.60;;;3.40;;
13807;SDS011;40769;51.512;5.494;2022-08-18T10:42:37;4.32;;;4.10;;
13807;SDS011;40769;51.512;5.494;2022-08-18T10:47:50;5.82;;;5.30;;
13807;SDS011;40769;51.512;5.494;2022-08-18T10:53:49;3.53;;;3.30;;
13807;SDS011;40769;51.512;5.494;2022-08-18T10:59:53;3.88;;;3.58;;
13807;SDS011;40769;51.512;5.494;2022-08-18T11:03:55;3.80;;;3.50;;
13807;SDS011;40769;51.512;5.494;2022-08-18T11:19:44;3.92;;;3.72;;
13807;SDS011;40769;51.512;5.494;2022-08-18T11:22:29;4.90;;;4.60;;
13807;SDS011;40769;51.512;5.494;2022-08-18T11:24:59;3.25;;;3.05;;
13807;SDS011;40769;51.512;5.494;2022-08-18T11:27:46;4.35;;;4.05;;
13807;SDS011;40769;51.512;5.494;2022-08-18T11:30:15;5.40;;;5.00;;
13807;SDS011;40769;51.512;5.494;2022-08-18T11:33:04;4.70;;;4.40;;
13807;SDS011;40769;51.512;5.494;2022-08-18T11:35:32;5.35;;;5.00;;
13807;SDS011;40769;51.512;5.494;2022-08-18T11:38:14;4.13;;;3.92;;
13807;SDS011;40769;51.512;5.494;2022-08-18T11:40:43;3.60;;;3.40;;
13807;SDS011;40769;51.512;5.494;2022-08-18T11:43:21;4.20;;;3.90;;
13807;SDS011;40769;51.512;5.494;2022-08-18T11:48:30;3.55;;;3.35;;
13807;SDS011;40769;51.512;5.494;2022-08-18T11:54:18;3.60;;;3.40;;
13807;SDS011;40769;51.512;5.494;2022-08-18T11:56:50;2.67;;;2.47;;
13807;SDS011;40769;51.512;5.494;2022-08-18T12:01:58;3.97;;;3.67;;
13807;SDS011;40769;51.512;5.494;2022-08-18T12:04:29;4.60;;;4.30;;
13807;SDS011;40769;51.512;5.494;2022-08-18T12:07:11;3.65;;;3.45;;
13807;SDS011;40769;51.512;5.494;2022-08-18T12:09:45;4.30;;;4.00;;
13807;SDS011;40769;51.512;5.494;2022-08-18T12:12:25;3.92;;;3.63;;
13807;SDS011;40769;51.512;5.494;2022-08-18T12:14:56;4.28;;;4.07;;
13807;SDS011;40769;51.512;5.494;2022-08-18T12:17:24;4.90;;;4.60;;
13807;SDS011;40769;51.512;5.494;2022-08-18T12:19:54;3.95;;;3.65;;
13807;SDS011;40769;51.512;5.494;2022-08-18T12:22:25;4.43;;;4.20;;
13807;SDS011;40769;51.512;5.494;2022-08-18T12:24:59;3.65;;;3.45;;
13807;SDS011;40769;51.512;5.494;2022-08-18T12:27:36;4.25;;;3.95;;
13807;SDS011;40769;51.512;5.494;2022-08-18T12:30:05;4.05;;;3.80;;
13807;SDS011;40769;51.512;5.494;2022-08-18T12:32:40;3.78;;;3.58;;
13807;SDS011;40769;51.512;5.494;2022-08-18T12:35:06;4.15;;;3.95;;
13807;SDS011;40769;51.512;5.494;2022-08-18T12:37:36;5.25;;;4.88;;
13807;SDS011;40769;51.512;5.494;2022-08-18T12:40:05;5.07;;;4.78;;
13807;SDS011;40769;51.512;5.494;2022-08-18T12:42:32;4.07;;;3.88;;
13807;SDS011;40769;51.512;5.494;2022-08-18T12:44:58;5.35;;;5.05;;
13807;SDS011;40769;51.512;5.494;2022-08-18T12:47:24;3.95;;;3.65;;
13807;SDS011;40769;51.512;5.494;2022-08-18T12:49:54;3.47;;;3.28;;
13807;SDS011;40769;51.512;5.494;2022-08-18T12:52:20;3.60;;;3.40;;
13807;SDS011;40769;51.512;5.494;2022-08-18T12:54:48;3.40;;;3.20;;
13807;SDS011;40769;51.512;5.494;2022-08-18T12:57:24;4.75;;;4.45;;
13807;SDS011;40769;51.512;5.494;2022-08-18T12:59:59;4.65;;;4.35;;
13807;SDS011;40769;51.512;5.494;2022-08-18T13:02:36;2.60;;;2.50;;
13807;SDS011;40769;51.512;5.494;2022-08-18T13:05:11;2.83;;;2.60;;
13807;SDS011;40769;51.512;5.494;2022-08-18T13:07:45;3.53;;;3.30;;
13807;SDS011;40769;51.512;5.494;2022-08-18T13:10:13;3.83;;;3.53;;
13807;SDS011;40769;51.512;5.494;2022-08-18T13:12:41;3.00;;;2.80;;
13807;SDS011;40769;51.512;5.494;2022-08-18T13:15:07;3.88;;;3.58;;
13807;SDS011;40769;51.512;5.494;2022-08-18T13:17:42;3.47;;;3.17;;
13807;SDS011;40769;51.512;5.494;2022-08-18T13:20:14;3.45;;;3.20;;
13807;SDS011;40769;51.512;5.494;2022-08-18T13:22:44;2.80;;;2.60;;
13807;SDS011;40769;51.512;5.494;2022-08-18T13:25:13;2.47;;;2.38;;
13807;SDS011;40769;51.512;5.494;2022-08-18T13:27:43;2.42;;;2.33;;
13807;SDS011;40769;51.512;5.494;2022-08-18T13:30:11;3.67;;;3.47;;
13807;SDS011;40769;51.512;5.494;2022-08-18T13:32:39;3.85;;;3.55;;
13807;SDS011;40769;51.512;5.494;2022-08-18T13:35:05;2.80;;;2.60;;
13807;SDS011;40769;51.512;5.494;2022-08-18T13:37:34;2.80;;;2.60;;
13807;SDS011;40769;51.512;5.494;2022-08-18T13:40:00;3.15;;;2.95;;
13807;SDS011;40769;51.512;5.494;2022-08-18T13:42:34;3.42;;;3.22;;
13807;SDS011;40769;51.512;5.494;2022-08-18T13:45:09;2.03;;;1.92;;
13807;SDS011;40769;51.512;5.494;2022-08-18T13:47:38;4.05;;;3.83;;
13807;SDS011;40769;51.512;5.494;2022-08-18T13:50:07;3.00;;;2.80;;
13807;SDS011;40769;51.512;5.494;2022-08-18T13:52:34;2.38;;;2.28;;
13807;SDS011;40769;51.512;5.494;2022-08-18T13:55:03;2.50;;;2.40;;
13807;SDS011;40769;51.512;5.494;2022-08-18T13:57:36;2.75;;;2.58;;
13807;SDS011;40769;51.512;5.494;2022-08-18T14:00:13;3.00;;;2.80;;
13807;SDS011;40769;51.512;5.494;2022-08-18T14:02:43;2.58;;;2.38;;
13807;SDS011;40769;51.512;5.494;2022-08-18T14:05:15;2.55;;;2.45;;
13807;SDS011;40769;51.512;5.494;2022-08-18T14:07:47;2.38;;;2.28;;
13807;SDS011;40769;51.512;5.494;2022-08-18T14:10:13;2.20;;;2.10;;
13807;SDS011;40769;51.512;5.494;2022-08-18T14:12:41;1.98;;;1.88;;
13807;SDS011;40769;51.512;5.494;2022-08-18T14:15:20;2.58;;;2.47;;
13807;SDS011;40769;51.512;5.494;2022-08-18T14:17:57;2.63;;;2.53;;
13807;SDS011;40769;51.512;5.494;2022-08-18T14:20:55;2.20;;;2.10;;
13807;SDS011;40769;51.512;5.494;2022-08-18T14:23:39;2.10;;;2.00;;
13807;SDS011;40769;51.512;5.494;2022-08-18T14:26:23;3.90;;;3.70;;
13807;SDS011;40769;51.512;5.494;2022-08-18T14:29:11;3.85;;;3.58;;
13807;SDS011;40769;51.512;5.494;2022-08-18T14:35:09;2.70;;;2.50;;
13807;SDS011;40769;51.512;5.494;2022-08-18T14:41:11;2.80;;;2.60;;
13807;SDS011;40769;51.512;5.494;2022-08-18T14:43:43;2.63;;;2.42;;
13807;SDS011;40769;51.512;5.494;2022-08-18T14:46:28;3.13;;;2.92;;
13807;SDS011;40769;51.512;5.494;2022-08-18T14:48:59;3.28;;;3.08;;
13807;SDS011;40769;51.512;5.494;2022-08-18T14:51:40;3.20;;;3.00;;
13807;SDS011;40769;51.512;5.494;2022-08-18T14:54:09;3.83;;;3.63;;
13807;SDS011;40769;51.512;5.494;2022-08-18T14:59:54;2.53;;;2.40;;
13807;SDS011;40769;51.512;5.494;2022-08-18T15:02:45;3.60;;;3.40;;
13807;SDS011;40769;51.512;5.494;2022-08-18T15:05:13;2.95;;;2.75;;
13807;SDS011;40769;51.512;5.494;2022-08-18T15:07:46;2.53;;;2.42;;
13807;SDS011;40769;51.512;5.494;2022-08-18T15:10:31;2.10;;;2.00;;
13807;SDS011;40769;51.512;5.494;2022-08-18T15:13:20;2.33;;;2.22;;
13807;SDS011;40769;51.512;5.494;2022-08-18T15:15:59;2.05;;;1.95;;
13807;SDS011;40769;51.512;5.494;2022-08-18T15:18:33;3.40;;;3.20;;
13807;SDS011;40769;51.512;5.494;2022-08-18T15:24:37;2.00;;;1.90;;
13807;SDS011;40769;51.512;5.494;2022-08-18T15:30:13;2.45;;;2.35;;
13807;SDS011;40769;51.512;5.494;2022-08-18T15:32:51;2.65;;;2.45;;
13807;SDS011;40769;51.512;5.494;2022-08-18T15:35:33;3.05;;;2.85;;
13807;SDS011;40769;51.512;5.494;2022-08-18T15:38:12;2.83;;;2.63;;
13807;SDS011;40769;51.512;5.494;2022-08-18T15:41:02;4.10;;;3.80;;
13807;SDS011;40769;51.512;5.494;2022-08-18T15:43:37;2.30;;;2.20;;
13807;SDS011;40769;51.512;5.494;2022-08-18T15:49:38;2.53;;;2.33;;
13807;SDS011;40769;51.512;5.494;2022-08-18T15:52:17;3.70;;;3.40;;
13807;SDS011;40769;51.512;5.494;2022-08-18T15:54:53;3.15;;;2.83;;
13807;SDS011;40769;51.512;5.494;2022-08-18T15:57:27;3.13;;;2.92;;
13807;SDS011;40769;51.512;5.494;2022-08-18T16:00:06;3.53;;;3.28;;
13807;SDS011;40769;51.512;5.494;2022-08-18T16:02:37;4.60;;;4.32;;
13807;SDS011;40769;51.512;5.494;2022-08-18T16:05:18;3.38;;;3.17;;
13807;SDS011;40769;51.512;5.494;2022-08-18T16:07:51;3.42;;;3.22;;
13807;SDS011;40769;51.512;5.494;2022-08-18T16:10:27;4.00;;;3.80;;
13807;SDS011;40769;51.512;5.494;2022-08-18T16:16:12;3.67;;;3.45;;
13807;SDS011;40769;51.512;5.494;2022-08-18T16:19:05;4.20;;;3.90;;
13807;SDS011;40769;51.512;5.494;2022-08-18T16:25:41;4.28;;;3.97;;
13807;SDS011;40769;51.512;5.494;2022-08-18T16:28:16;3.00;;;2.90;;
13807;SDS011;40769;51.512;5.494;2022-08-18T16:31:10;4.30;;;4.10;;
13807;SDS011;40769;51.512;5.494;2022-08-18T16:33:40;5.20;;;4.80;;
13807;SDS011;40769;51.512;5.494;2022-08-18T16:36:10;3.47;;;3.28;;
13807;SDS011;40769;51.512;5.494;2022-08-18T16:39:01;4.38;;;4.15;;
13807;SDS011;40769;51.512;5.494;2022-08-18T16:41:30;4.03;;;3.72;;
13807;SDS011;40769;51.512;5.494;2022-08-18T16:46:43;4.63;;;4.32;;
13807;SDS011;40769;51.512;5.494;2022-08-18T16:49:22;4.50;;;4.30;;
13807;SDS011;40769;51.512;5.494;2022-08-18T16:51:58;4.88;;;4.57;;
13807;SDS011;40769;51.512;5.494;2022-08-18T16:54:37;5.28;;;4.97;;
13807;SDS011;40769;51.512;5.494;2022-08-18T16:57:12;4.38;;;4.07;;
13807;SDS011;40769;51.512;5.494;2022-08-18T17:00:04;3.80;;;3.60;;
13807;SDS011;40769;51.512;5.494;2022-08-18T17:02:57;4.43;;;4.13;;
13807;SDS011;40769;51.512;5.494;2022-08-18T17:05:49;5.70;;;5.20;;
13807;SDS011;40769;51.512;5.494;2022-08-18T17:08:39;3.60;;;3.40;;
13807;SDS011;40769;51.512;5.494;2022-08-18T17:11:10;4.80;;;4.50;;
13807;SDS011;40769;51.512;5.494;2022-08-18T17:13:42;4.10;;;3.88;;
13807;SDS011;40769;51.512;5.494;2022-08-18T17:16:09;4.88;;;4.57;;
13807;SDS011;40769;51.512;5.494;2022-08-18T17:18:38;4.82;;;4.53;;
13807;SDS011;40769;51.512;5.494;2022-08-18T17:21:07;4.13;;;3.90;;
13807;SDS011;40769;51.512;5.494;2022-08-18T17:23:35;3.45;;;3.25;;
13807;SDS011;40769;51.512;5.494;2022-08-18T17:26:05;4.38;;;4.07;;
13807;SDS011;40769;51.512;5.494;2022-08-18T17:28:42;3.40;;;3.20;;
13807;SDS011;40769;51.512;5.494;2022-08-18T17:31:41;3.45;;;3.15;;
13807;SDS011;40769;51.512;5.494;2022-08-18T17:34:37;3.05;;;2.85;;
13807;SDS011;40769;51.512;5.494;2022-08-18T17:37:11;3.28;;;2.92;;
13807;SDS011;40769;51.512;5.494;2022-08-18T17:39:45;3.38;;;3.17;;
13807;SDS011;40769;51.512;5.494;2022-08-18T17:42:25;2.63;;;2.53;;
13807;SDS011;40769;51.512;5.494;2022-08-18T17:44:59;3.50;;;3.22;;
13807;SDS011;40769;51.512;5.494;2022-08-18T17:50:25;3.53;;;3.33;;
13807;SDS011;40769;51.512;5.494;2022-08-18T17:53:19;3.75;;;3.45;;
13807;SDS011;40769;51.512;5.494;2022-08-18T17:55:47;4.35;;;4.05;;
13807;SDS011;40769;51.512;5.494;2022-08-18T18:01:07;4.63;;;3.60;;
13807;SDS011;40769;51.512;5.494;2022-08-18T18:03:35;3.90;;;3.70;;
13807;SDS011;40769;51.512;5.494;2022-08-18T18:06:05;2.53;;;2.42;;
13807;SDS011;40769;51.512;5.494;2022-08-18T18:11:13;4.03;;;3.80;;
13807;SDS011;40769;51.512;5.494;2022-08-18T18:13:38;4.65;;;4.25;;
13807;SDS011;40769;51.512;5.494;2022-08-18T18:18:45;2.63;;;2.53;;
13807;SDS011;40769;51.512;5.494;2022-08-18T18:21:23;3.13;;;2.92;;
13807;SDS011;40769;51.512;5.494;2022-08-18T18:23:51;3.70;;;3.50;;